createdAt,value
2023-03-07T00:01:00.800Z,34.80
2023-03-07T00:03:27.510Z,33.63
2023-03-07T00:06:04.996Z,34.08
2023-03-07T00:08:31.975Z,33.03
2023-03-07T00:11:06.791Z,35.53
2023-03-07T00:13:35.161Z,33.42
2023-03-07T00:16:08.226Z,32.35
2023-03-07T00:18:35.273Z,37.75
2023-03-07T00:21:07.367Z,37.03
2023-03-07T00:23:35.287Z,34.55
2023-03-07T00:26:05.064Z,35.85
2023-03-07T00:28:31.643Z,34.35
2023-03-07T00:31:07.205Z,31.23
2023-03-07T00:33:34.406Z,31.65
2023-03-07T00:36:11.123Z,33.53
2023-03-07T00:38:37.697Z,30.13
2023-03-07T00:41:12.070Z,27.25
2023-03-07T00:43:39.082Z,28.85
2023-03-07T00:46:05.852Z,30.33
2023-03-07T00:48:37.538Z,28.80
2023-03-07T00:51:05.755Z,31.13
2023-03-07T00:53:32.316Z,30.95
2023-03-07T00:56:13.335Z,29.30
2023-03-07T00:58:40.035Z,32.58
2023-03-07T01:01:09.694Z,33.08
2023-03-07T01:03:36.763Z,32.63
2023-03-07T01:06:09.727Z,31.92
2023-03-07T01:08:36.169Z,32.38
2023-03-07T01:11:05.098Z,29.25
2023-03-07T01:13:33.095Z,31.17
2023-03-07T01:16:15.122Z,32.38
2023-03-07T01:18:42.461Z,33.35
2023-03-07T01:21:14.476Z,33.00
2023-03-07T01:23:41.121Z,31.77
2023-03-07T01:26:07.568Z,34.15
2023-03-07T01:28:33.986Z,36.25
2023-03-07T01:31:00.970Z,33.70
2023-03-07T01:33:27.443Z,34.25
2023-03-07T01:35:53.951Z,32.55
2023-03-07T01:38:20.500Z,33.88
2023-03-07T01:40:47.022Z,36.03
2023-03-07T01:43:32.456Z,33.20
2023-03-07T01:46:30.097Z,31.60
2023-03-07T01:49:01.082Z,33.60
2023-03-07T01:51:28.967Z,34.45
2023-03-07T01:53:57.298Z,31.45
2023-03-07T01:56:23.832Z,33.95
2023-03-07T01:58:51.572Z,33.45
2023-03-07T02:01:18.228Z,36.05
2023-03-07T02:03:55.233Z,31.30
2023-03-07T02:06:23.185Z,31.52
2023-03-07T02:08:51.111Z,32.53
2023-03-07T02:11:17.944Z,32.85
2023-03-07T02:13:44.599Z,31.60
2023-03-07T02:16:11.679Z,30.38
2023-03-07T02:18:47.891Z,32.22
2023-03-07T02:21:23.289Z,29.17
2023-03-07T02:24:21.424Z,31.40
2023-03-07T02:26:51.098Z,25.92
2023-03-07T02:29:17.659Z,28.40
2023-03-07T02:31:44.754Z,26.67
2023-03-07T02:34:21.720Z,29.23
2023-03-07T02:36:52.200Z,29.13
2023-03-07T02:39:21.578Z,35.60
2023-03-07T02:41:49.693Z,29.35
2023-03-07T02:44:16.122Z,32.40
2023-03-07T02:46:42.568Z,28.65
2023-03-07T02:49:08.977Z,30.30
2023-03-07T02:51:35.445Z,31.98
2023-03-07T02:54:01.942Z,32.13
2023-03-07T02:56:28.440Z,31.40
2023-03-07T02:58:54.865Z,29.80
2023-03-07T03:01:21.381Z,34.03
2023-03-07T03:03:47.974Z,32.75
2023-03-07T03:06:14.724Z,31.85
2023-03-07T03:08:41.168Z,29.52
2023-03-07T03:11:07.654Z,28.85
2023-03-07T03:13:34.191Z,32.03
2023-03-07T03:16:00.728Z,31.23
2023-03-07T03:18:31.253Z,32.20
2023-03-07T03:20:57.694Z,32.35
2023-03-07T03:23:27.544Z,30.98
2023-03-07T03:26:02.165Z,29.65
2023-03-07T03:28:29.172Z,31.77
2023-03-07T03:31:00.671Z,30.35
2023-03-07T03:36:00.387Z,30.63
2023-03-07T03:38:27.307Z,31.73
2023-03-07T03:40:54.841Z,32.22
2023-03-07T03:43:21.357Z,34.25
2023-03-07T03:45:55.411Z,33.35
2023-03-07T03:48:22.536Z,29.20
2023-03-07T03:50:48.943Z,28.42
2023-03-07T03:53:15.439Z,31.15
2023-03-07T03:55:41.892Z,27.98
2023-03-07T03:58:08.342Z,29.77
2023-03-07T04:00:34.749Z,27.73
2023-03-07T04:03:01.263Z,27.98
2023-03-07T04:05:27.791Z,28.88
2023-03-07T04:07:54.191Z,28.08
2023-03-07T04:10:20.714Z,28.30
2023-03-07T04:12:47.104Z,29.90
2023-03-07T04:15:13.551Z,30.00
2023-03-07T04:17:39.958Z,30.80
2023-03-07T04:20:11.006Z,28.55
2023-03-07T04:22:37.451Z,30.50
2023-03-07T04:25:04.107Z,31.10
2023-03-07T04:27:30.722Z,34.40
2023-03-07T04:29:57.209Z,31.38
2023-03-07T04:32:23.774Z,29.92
2023-03-07T04:34:50.218Z,27.80
2023-03-07T04:37:16.617Z,30.27
2023-03-07T04:39:43.123Z,31.23
2023-03-07T04:42:09.628Z,30.15
2023-03-07T04:44:36.103Z,29.65
2023-03-07T04:47:02.727Z,29.05
2023-03-07T04:49:29.171Z,30.25
2023-03-07T04:51:55.644Z,27.42
2023-03-07T04:54:22.104Z,30.42
2023-03-07T04:56:48.622Z,26.63
2023-03-07T04:59:15.022Z,28.33
2023-03-07T05:01:41.552Z,36.58
2023-03-07T05:04:08.112Z,59.83
2023-03-07T05:06:34.557Z,55.63
2023-03-07T05:09:00.982Z,50.58
2023-03-07T05:11:27.435Z,44.28
2023-03-07T05:13:53.920Z,39.55
2023-03-07T05:16:20.452Z,43.22
2023-03-07T05:18:46.926Z,38.45
2023-03-07T05:21:13.447Z,38.55
2023-03-07T05:23:40.005Z,36.42
2023-03-07T05:26:06.575Z,35.20
2023-03-07T05:28:34.048Z,31.83
2023-03-07T05:31:00.563Z,36.67
2023-03-07T05:33:27.079Z,34.85
2023-03-07T05:35:55.582Z,37.20
2023-03-07T05:38:22.043Z,35.33
2023-03-07T05:40:48.617Z,37.35
2023-03-07T05:43:15.039Z,35.30
2023-03-07T05:45:41.504Z,40.55
2023-03-07T05:48:08.002Z,35.58
2023-03-07T05:50:34.664Z,36.80
2023-03-07T05:53:01.146Z,33.88
2023-03-07T05:55:27.664Z,33.15
2023-03-07T05:57:54.122Z,33.97
2023-03-07T06:00:21.206Z,37.78
2023-03-07T06:02:47.795Z,33.10
2023-03-07T06:05:14.387Z,32.47
2023-03-07T06:07:40.841Z,32.85
2023-03-07T06:10:07.880Z,34.58
2023-03-07T06:12:34.370Z,35.65
2023-03-07T06:15:00.803Z,33.65
2023-03-07T06:17:27.260Z,32.92
2023-03-07T06:19:53.714Z,31.42
2023-03-07T06:22:20.224Z,30.85
2023-03-07T06:24:46.722Z,33.40
2023-03-07T06:27:13.266Z,34.28
2023-03-07T06:29:39.706Z,34.38
2023-03-07T06:32:06.497Z,31.55
2023-03-07T06:34:33.935Z,31.92
2023-03-07T06:37:03.911Z,31.23
2023-03-07T06:39:31.487Z,31.58
2023-03-07T06:41:58.044Z,33.33
2023-03-07T06:44:25.190Z,34.40
2023-03-07T06:46:51.708Z,31.00
2023-03-07T06:49:18.203Z,29.30
2023-03-07T06:51:45.201Z,32.53
2023-03-07T06:54:12.204Z,34.25
2023-03-07T06:56:38.969Z,31.38
2023-03-07T06:59:08.767Z,32.35
2023-03-07T07:01:35.974Z,31.35
2023-03-07T07:04:04.084Z,32.35
2023-03-07T07:06:30.698Z,32.78
2023-03-07T07:09:01.194Z,31.08
2023-03-07T07:11:28.932Z,33.42
2023-03-07T07:13:56.157Z,32.13
2023-03-07T07:16:25.000Z,34.28
2023-03-07T07:18:52.273Z,35.03
2023-03-07T07:21:19.830Z,36.65
2023-03-07T07:23:46.600Z,36.97
2023-03-07T07:26:13.073Z,38.13
2023-03-07T07:28:39.533Z,35.88
2023-03-07T07:31:06.170Z,36.97
2023-03-07T07:33:32.782Z,37.38
2023-03-07T07:35:59.354Z,36.20
2023-03-07T07:38:25.838Z,33.25
2023-03-07T07:40:52.378Z,33.92
2023-03-07T07:43:18.937Z,34.28
2023-03-07T07:45:45.630Z,35.58
2023-03-07T07:48:12.154Z,33.40
2023-03-07T07:50:38.663Z,31.67
2023-03-07T07:53:05.157Z,31.38
2023-03-07T07:55:31.684Z,31.90
2023-03-07T07:57:58.352Z,34.15
2023-03-07T08:00:25.182Z,34.15
2023-03-07T08:02:51.764Z,31.00
2023-03-07T08:05:19.943Z,28.83
2023-03-07T08:07:47.228Z,26.77
2023-03-07T08:10:16.035Z,29.10
2023-03-07T08:12:50.839Z,30.35
2023-03-07T08:15:18.259Z,33.83
2023-03-07T08:17:44.988Z,33.95
2023-03-07T08:20:11.850Z,33.90
2023-03-07T08:22:39.130Z,36.30
2023-03-07T08:25:10.239Z,34.63
2023-03-07T08:27:36.688Z,37.42
2023-03-07T08:30:03.893Z,35.17
2023-03-07T08:32:30.373Z,34.72
2023-03-07T08:34:56.983Z,35.38
2023-03-07T08:37:23.492Z,34.60
2023-03-07T08:39:49.933Z,31.05
2023-03-07T08:42:16.510Z,32.95
2023-03-07T08:44:43.025Z,33.03
2023-03-07T08:47:11.372Z,34.75
2023-03-07T08:49:38.110Z,28.17
2023-03-07T08:52:04.879Z,30.08
2023-03-07T08:54:32.417Z,30.08
2023-03-07T08:57:00.236Z,27.60
2023-03-07T08:59:26.917Z,32.28
2023-03-07T09:01:53.559Z,28.67
2023-03-07T09:04:20.194Z,29.35
2023-03-07T09:06:46.724Z,32.20
2023-03-07T09:09:13.277Z,27.83
2023-03-07T09:11:39.998Z,31.00
2023-03-07T09:14:06.862Z,29.98
2023-03-07T09:16:33.417Z,28.73
2023-03-07T09:19:00.155Z,31.48
2023-03-07T09:21:26.670Z,29.77
2023-03-07T09:23:53.209Z,28.77
2023-03-07T09:26:19.709Z,27.13
2023-03-07T09:28:46.489Z,24.27
2023-03-07T09:31:14.587Z,21.58
2023-03-07T09:33:41.974Z,21.63
2023-03-07T09:36:11.268Z,22.05
2023-03-07T09:38:38.901Z,22.27
2023-03-07T09:41:40.877Z,25.17
2023-03-07T09:44:10.445Z,19.50
2023-03-07T09:46:57.762Z,18.45
2023-03-07T09:49:40.075Z,19.55
2023-03-07T09:52:12.954Z,20.88
2023-03-07T09:54:44.418Z,15.90
2023-03-07T09:57:55.374Z,15.38
2023-03-07T10:00:29.673Z,14.83
2023-03-07T10:03:21.444Z,15.77
2023-03-07T10:05:49.678Z,15.15
2023-03-07T10:08:28.563Z,13.70
2023-03-07T10:11:13.573Z,14.93
2023-03-07T10:14:21.114Z,15.52
2023-03-07T10:17:05.697Z,13.27
2023-03-07T10:20:24.723Z,12.10
2023-03-07T10:23:09.369Z,14.57
2023-03-07T10:25:58.153Z,15.63
2023-03-07T10:28:31.764Z,13.70
2023-03-07T10:31:13.075Z,15.48
2023-03-07T10:33:42.793Z,12.65
2023-03-07T10:36:32.698Z,14.13
2023-03-07T10:39:25.038Z,13.07
2023-03-07T10:41:52.718Z,14.73
2023-03-07T10:44:21.796Z,15.50
2023-03-07T10:46:56.519Z,13.88
2023-03-07T10:49:28.058Z,13.73
2023-03-07T10:52:03.132Z,14.43
2023-03-07T10:54:33.125Z,13.63
2023-03-07T10:57:02.523Z,14.45
2023-03-07T10:59:28.929Z,23.38
2023-03-07T11:01:58.075Z,12.88
2023-03-07T11:04:27.381Z,12.88
2023-03-07T11:06:58.880Z,12.20
2023-03-07T11:09:36.247Z,12.10
2023-03-07T11:12:05.920Z,12.30
2023-03-07T11:14:47.702Z,13.10
2023-03-07T11:17:44.846Z,12.75
2023-03-07T11:20:25.021Z,11.52
2023-03-07T11:23:19.090Z,14.00
2023-03-07T11:25:45.597Z,11.32
2023-03-07T11:28:24.002Z,12.93
2023-03-07T11:30:53.654Z,12.25
2023-03-07T11:33:58.634Z,10.75
2023-03-07T11:36:28.832Z,11.25
2023-03-07T11:39:00.450Z,12.50
2023-03-07T11:41:37.472Z,11.88
2023-03-07T11:44:18.857Z,12.75
2023-03-07T11:50:05.508Z,10.40
2023-03-07T11:52:46.868Z,10.57
2023-03-07T11:58:22.451Z,10.38
2023-03-07T12:00:54.881Z,14.20
2023-03-07T12:03:48.646Z,11.25
2023-03-07T12:06:52.739Z,11.05
2023-03-07T12:09:31.194Z,11.05
2023-03-07T12:12:34.644Z,11.57
2023-03-07T12:15:38.070Z,12.23
2023-03-07T12:18:50.958Z,9.55
2023-03-07T12:21:17.336Z,10.75
2023-03-07T12:23:58.337Z,11.75
2023-03-07T12:27:19.040Z,12.20
2023-03-07T12:29:54.502Z,11.48
2023-03-07T12:32:25.858Z,12.52
2023-03-07T12:35:14.338Z,10.32
2023-03-07T12:37:47.634Z,11.82
2023-03-07T12:59:12.915Z,11.70
2023-03-07T13:01:47.044Z,13.10
2023-03-07T13:04:16.614Z,11.98
2023-03-07T13:06:45.277Z,12.60
2023-03-07T13:09:33.427Z,12.88
2023-03-07T13:12:22.983Z,14.88
2023-03-07T13:15:01.094Z,12.10
2023-03-07T13:17:30.961Z,12.85
2023-03-07T13:20:34.771Z,13.02
2023-03-07T13:23:21.160Z,15.25
2023-03-07T13:25:58.018Z,12.55
2023-03-07T13:28:33.392Z,12.88
2023-03-07T13:31:27.131Z,13.35
2023-03-07T13:33:54.114Z,14.88
2023-03-07T13:36:38.752Z,12.82
2023-03-07T13:39:37.652Z,13.52
2023-03-07T13:42:04.235Z,14.40
2023-03-07T13:44:39.909Z,12.55
2023-03-07T13:47:41.292Z,11.98
2023-03-07T13:50:49.337Z,13.70
2023-03-07T13:53:20.164Z,12.60
2023-03-07T13:56:02.236Z,13.52
2023-03-07T13:58:39.848Z,12.45
2023-03-07T14:01:14.858Z,13.88
2023-03-07T14:03:51.226Z,13.48
2023-03-07T14:06:33.086Z,31.27
2023-03-07T14:09:02.571Z,14.80
2023-03-07T14:11:38.120Z,14.52
2023-03-07T14:14:15.743Z,13.23
2023-03-07T14:16:50.745Z,12.48
2023-03-07T14:19:57.162Z,13.30
2023-03-07T14:22:41.961Z,12.90
2023-03-07T14:25:14.821Z,15.43
2023-03-07T14:28:02.336Z,13.40
2023-03-07T14:30:33.780Z,13.10
2023-03-07T14:33:01.339Z,14.00
2023-03-07T14:35:38.527Z,12.25
2023-03-07T14:38:16.619Z,13.23
2023-03-07T14:40:49.559Z,14.23
2023-03-07T14:43:32.942Z,11.95
2023-03-07T14:46:05.466Z,11.93
2023-03-07T14:48:54.902Z,13.27
2023-03-07T14:51:25.450Z,12.80
2023-03-07T14:53:52.410Z,12.68
2023-03-07T14:56:23.752Z,16.65
2023-03-07T14:58:57.871Z,101.10
2023-03-07T15:01:31.851Z,73.45
2023-03-07T15:03:58.966Z,51.38
2023-03-07T15:06:27.380Z,16.17
2023-03-07T15:08:57.037Z,43.25
2023-03-07T15:11:37.009Z,16.75
2023-03-07T15:14:22.051Z,12.18
2023-03-07T15:16:51.345Z,12.55
2023-03-07T15:19:32.949Z,12.00
2023-03-07T15:22:03.382Z,12.93
2023-03-07T15:24:38.467Z,13.63
2023-03-07T15:27:10.485Z,13.25
2023-03-07T15:29:39.312Z,11.95
2023-03-07T15:32:07.395Z,14.68
2023-03-07T15:34:40.110Z,13.00
2023-03-07T15:37:33.893Z,11.35
2023-03-07T15:40:08.408Z,13.10
2023-03-07T15:42:52.452Z,11.45
2023-03-07T15:45:28.254Z,12.60
2023-03-07T15:47:55.347Z,12.45
2023-03-07T15:50:24.929Z,11.90
2023-03-07T15:52:53.555Z,12.75
2023-03-07T15:55:24.270Z,10.95
2023-03-07T15:57:55.142Z,13.70
2023-03-07T16:00:34.910Z,13.73
2023-03-07T16:03:21.039Z,12.80
2023-03-07T16:05:47.583Z,13.93
2023-03-07T16:08:16.874Z,12.98
2023-03-07T16:10:58.725Z,13.68
2023-03-07T16:13:30.119Z,14.68
2023-03-07T16:16:07.115Z,14.48
2023-03-07T16:18:34.947Z,16.27
2023-03-07T16:21:01.609Z,15.85
2023-03-07T16:23:31.203Z,15.65
2023-03-07T16:25:59.494Z,14.95
2023-03-07T16:28:26.375Z,13.63
2023-03-07T16:30:53.092Z,13.50
2023-03-07T16:33:19.744Z,13.98
2023-03-07T16:35:46.286Z,16.67
2023-03-07T16:38:13.131Z,16.67
2023-03-07T16:40:42.142Z,17.63
2023-03-07T16:43:31.103Z,15.55
2023-03-07T16:45:57.744Z,16.65
2023-03-07T16:48:24.491Z,17.48
2023-03-07T16:50:51.097Z,14.80
2023-03-07T16:53:17.702Z,12.80
2023-03-07T16:55:44.232Z,21.50
2023-03-07T16:58:30.491Z,20.02
2023-03-07T17:00:58.977Z,16.77
2023-03-07T17:03:26.652Z,16.38
2023-03-07T17:05:53.142Z,18.80
2023-03-07T17:08:19.654Z,17.65
2023-03-07T17:10:46.270Z,17.30
2023-03-07T17:13:16.995Z,15.13
2023-03-07T17:15:44.526Z,14.82
2023-03-07T17:18:12.104Z,15.88
2023-03-07T17:20:38.722Z,17.48
2023-03-07T17:23:05.187Z,16.02
2023-03-07T17:25:31.666Z,15.70
2023-03-07T17:28:00.641Z,12.27
2023-03-07T17:30:29.715Z,10.75
2023-03-07T17:32:56.709Z,10.45
2023-03-07T17:35:23.546Z,10.15
2023-03-07T17:37:52.973Z,9.77
2023-03-07T17:40:20.474Z,13.73
2023-03-07T17:42:49.869Z,9.15
2023-03-07T17:45:16.625Z,11.00
2023-03-07T17:47:43.129Z,9.77
2023-03-07T17:50:11.162Z,12.13
2023-03-07T17:52:37.685Z,15.85
2023-03-07T17:55:09.516Z,17.85
2023-03-07T17:57:36.522Z,14.68
2023-03-07T18:00:06.891Z,12.45
2023-03-07T18:02:35.250Z,11.97
2023-03-07T18:05:01.748Z,12.73
2023-03-07T18:07:28.555Z,12.73
2023-03-07T18:10:07.095Z,11.10
2023-03-07T18:12:34.524Z,8.88
2023-03-07T18:15:01.081Z,8.93
2023-03-07T18:17:33.296Z,8.50
2023-03-07T18:20:08.136Z,7.20
2023-03-07T18:22:34.680Z,8.38
2023-03-07T18:25:01.112Z,9.15
2023-03-07T18:27:27.550Z,10.50
2023-03-07T18:29:54.080Z,10.05
2023-03-07T18:32:20.641Z,9.73
2023-03-07T18:34:47.239Z,11.00
2023-03-07T18:37:15.547Z,11.75
2023-03-07T18:39:42.009Z,15.73
2023-03-07T18:42:08.714Z,18.05
2023-03-07T18:44:35.263Z,16.52
2023-03-07T18:47:01.792Z,17.38
2023-03-07T18:49:28.256Z,17.70
2023-03-07T18:51:54.912Z,18.92
2023-03-07T18:54:21.465Z,24.83
2023-03-07T18:56:48.228Z,26.27
2023-03-07T18:59:15.766Z,31.23
2023-03-07T19:01:42.278Z,29.67
2023-03-07T19:04:09.124Z,34.17
2023-03-07T19:06:40.634Z,37.78
2023-03-07T19:09:19.372Z,40.97
2023-03-07T19:11:46.257Z,39.42
2023-03-07T19:14:13.055Z,38.60
2023-03-07T19:16:39.744Z,33.47
2023-03-07T19:19:06.260Z,24.25
2023-03-07T19:21:32.956Z,23.75
2023-03-07T19:24:03.355Z,23.95
2023-03-07T19:26:30.053Z,21.30
2023-03-07T19:28:57.067Z,19.70
2023-03-07T19:31:26.341Z,22.98
2023-03-07T19:33:53.492Z,22.95
2023-03-07T19:36:27.299Z,26.35
2023-03-07T19:38:56.270Z,28.00
2023-03-07T19:41:24.972Z,33.17
2023-03-07T19:43:52.006Z,26.23
2023-03-07T19:46:20.128Z,23.52
2023-03-07T19:48:46.737Z,25.27
2023-03-07T19:51:15.665Z,23.73
2023-03-07T19:53:43.699Z,22.70
2023-03-07T19:56:13.771Z,27.58
2023-03-07T19:58:40.275Z,26.67
2023-03-07T20:01:12.186Z,25.30
2023-03-07T20:03:39.185Z,25.83
2023-03-07T20:06:07.878Z,28.52
2023-03-07T20:08:34.857Z,23.60
2023-03-07T20:11:13.354Z,27.08
2023-03-07T20:13:41.311Z,27.08
2023-03-07T20:16:10.324Z,25.50
2023-03-07T20:18:37.111Z,26.42
2023-03-07T20:21:09.282Z,24.77
2023-03-07T20:23:36.084Z,22.60
2023-03-07T20:26:04.825Z,22.92
2023-03-07T20:28:31.901Z,23.85
2023-03-07T20:30:58.957Z,24.02
2023-03-07T20:33:25.502Z,22.63
2023-03-07T20:36:04.965Z,24.27
2023-03-07T20:38:33.283Z,24.70
2023-03-07T20:41:05.342Z,23.42
2023-03-07T20:43:33.118Z,25.08
2023-03-07T20:46:12.988Z,26.52
2023-03-07T20:48:40.867Z,25.48
2023-03-07T20:51:15.946Z,24.33
2023-03-07T20:53:42.834Z,25.80
2023-03-07T20:56:09.369Z,25.02
2023-03-07T20:58:36.028Z,23.40
2023-03-07T21:01:02.934Z,23.58
2023-03-07T21:03:29.750Z,26.35
2023-03-07T21:05:58.593Z,26.23
2023-03-07T21:08:25.373Z,24.40
2023-03-07T21:11:02.083Z,23.85
2023-03-07T21:13:28.842Z,23.27
2023-03-07T21:16:00.507Z,23.23
2023-03-07T21:18:27.449Z,22.27
2023-03-07T21:20:54.011Z,20.13
2023-03-07T21:23:20.438Z,21.73
2023-03-07T21:25:47.204Z,22.13
2023-03-07T21:28:13.892Z,23.60
2023-03-07T21:30:40.480Z,22.67
2023-03-07T21:33:07.128Z,24.67
2023-03-07T21:35:40.298Z,22.65
2023-03-07T21:38:07.262Z,25.13
2023-03-07T21:40:33.791Z,22.77
2023-03-07T21:43:00.266Z,22.77
2023-03-07T21:45:26.781Z,23.00
2023-03-07T21:47:54.326Z,25.08
2023-03-07T21:50:20.985Z,27.48
2023-03-07T21:52:47.577Z,27.20
2023-03-07T21:55:14.106Z,24.00
2023-03-07T21:57:40.566Z,25.80
2023-03-07T22:00:08.429Z,27.25
2023-03-07T22:02:37.673Z,24.55
2023-03-07T22:05:04.932Z,26.40
2023-03-07T22:07:31.673Z,25.40
2023-03-07T22:09:58.265Z,25.92
2023-03-07T22:12:24.686Z,23.52
2023-03-07T22:14:51.297Z,26.33
2023-03-07T22:17:17.741Z,25.90
2023-03-07T22:19:44.192Z,26.00
2023-03-07T22:22:10.658Z,27.35
2023-03-07T22:24:37.243Z,28.13
2023-03-07T22:27:03.681Z,27.23
2023-03-07T22:29:30.097Z,26.13
2023-03-07T22:31:56.830Z,25.00
2023-03-07T22:34:23.296Z,27.02
2023-03-07T22:36:55.660Z,26.02
2023-03-07T22:39:22.160Z,27.15
2023-03-07T22:41:48.797Z,28.55
2023-03-07T22:44:18.293Z,28.58
2023-03-07T22:46:49.576Z,27.40
2023-03-07T22:49:16.284Z,25.63
2023-03-07T22:51:42.844Z,23.90
2023-03-07T22:54:09.292Z,24.00
2023-03-07T22:56:36.239Z,24.15
2023-03-07T22:59:05.217Z,25.38
2023-03-07T23:01:32.390Z,27.98
2023-03-07T23:04:00.237Z,25.30
2023-03-07T23:06:29.458Z,24.45
2023-03-07T23:08:58.355Z,24.10
2023-03-07T23:11:25.332Z,24.27
2023-03-07T23:13:52.877Z,23.52
2023-03-07T23:16:22.267Z,23.33
2023-03-07T23:18:50.829Z,22.90
2023-03-07T23:21:19.591Z,25.70
2023-03-07T23:23:46.871Z,21.98
2023-03-07T23:26:27.819Z,23.38
2023-03-07T23:28:55.013Z,25.00
2023-03-07T23:31:27.258Z,22.20
2023-03-07T23:33:58.578Z,22.58
2023-03-07T23:36:26.746Z,23.65
2023-03-07T23:38:54.025Z,23.67
2023-03-07T23:41:21.462Z,24.52
2023-03-07T23:43:59.071Z,22.40
2023-03-07T23:46:26.268Z,21.98
2023-03-07T23:48:52.982Z,21.92
2023-03-07T23:51:20.782Z,23.77
2023-03-07T23:53:47.457Z,23.92
2023-03-07T23:56:14.574Z,22.10
2023-03-07T23:58:42.153Z,24.55
